Time;durP1;ratioP1;P1;durP2;ratioP2;P2;SDS_P1;SDS_P2;PMS_P1;PMS_P2;Temp;Humidity;BMP_temperature;BMP_pressure;BME280_temperature;BME280_humidity;BME280_pressure;Samples;Min_cycle;Max_cycle;Signal;HPM_P1;HPM_P2
2020/12/05 08:39:40;;;;;;;75.63;34.05;;;1.80;81.10;;;;;;5094603;27;20424;-42
2020/12/05 08:42:06;;;;;;;78.13;33.67;;;1.70;82.00;;;;;;5102137;28;20427;-43
2020/12/05 08:44:32;;;;;;;70.55;36.22;;;1.80;82.40;;;;;;5114122;28;20033;-43
2020/12/05 08:47:03;;;;;;;71.32;37.28;;;1.90;82.80;;;;;;5114279;28;20059;-43
2020/12/05 08:49:38;;;;;;;90.00;44.20;;;2.00;83.30;;;;;;5111956;28;20031;-42
2020/12/05 08:52:05;;;;;;;66.72;37.22;;;2.10;83.50;;;;;;5095026;28;20078;-43
2020/12/05 08:54:41;;;;;;;66.35;35.28;;;2.20;83.60;;;;;;5093773;28;20044;-40
2020/12/05 08:57:08;;;;;;;68.03;36.38;;;2.40;83.60;;;;;;5094359;28;20035;-40
2020/12/05 08:59:34;;;;;;;68.93;37.45;;;2.50;82.80;;;;;;5114978;28;20036;-43
2020/12/05 09:02:00;;;;;;;67.65;35.33;;;2.60;82.60;;;;;;5114620;28;20299;-43
2020/12/05 09:04:32;;;;;;;54.75;30.70;;;2.70;82.30;;;;;;5114212;28;20354;-42
2020/12/05 09:07:16;;;;;;;49.88;28.92;;;2.70;81.80;;;;;;5112786;28;20080;-43
2020/12/05 09:09:43;;;;;;;50.45;30.27;;;2.80;81.80;;;;;;5114548;28;20031;-40
2020/12/05 09:12:13;;;;;;;47.28;28.65;;;2.90;81.70;;;;;;5113634;28;20325;-39
2020/12/05 09:14:40;;;;;;;51.65;29.08;;;3.00;81.40;;;;;;5112285;28;20035;-39
2020/12/05 09:17:26;;;;;;;51.92;29.83;;;3.10;81.20;;;;;;5112937;28;20041;-39
2020/12/05 09:20:07;;;;;;;50.20;27.35;;;3.10;80.80;;;;;;5112427;28;20027;-41
2020/12/05 09:22:34;;;;;;;48.42;27.70;;;3.20;80.70;;;;;;5113178;28;20028;-42
2020/12/05 09:25:00;;;;;;;47.42;25.45;;;3.20;80.50;;;;;;5113033;28;20035;-42
2020/12/05 09:27:41;;;;;;;44.65;25.98;;;3.20;80.30;;;;;;5112842;28;20020;-42
2020/12/05 09:30:11;;;;;;;48.17;27.15;;;3.30;79.80;;;;;;5113093;28;20269;-42
2020/12/05 09:32:42;;;;;;;61.25;33.92;;;3.30;79.70;;;;;;5112834;28;20127;-42
2020/12/05 09:35:10;;;;;;;47.83;27.65;;;3.30;79.70;;;;;;5113135;28;20027;-42
2020/12/05 09:37:36;;;;;;;55.05;30.38;;;3.40;79.50;;;;;;5112869;28;20032;-42
2020/12/05 09:40:04;;;;;;;46.40;28.27;;;3.40;79.30;;;;;;5113419;28;20035;-39
2020/12/05 09:42:30;;;;;;;48.05;27.80;;;3.40;79.30;;;;;;5111748;28;20023;-39
2020/12/05 09:44:56;;;;;;;51.67;28.67;;;3.40;78.90;;;;;;5112964;28;20027;-42
2020/12/05 09:47:22;;;;;;;43.60;26.52;;;3.50;78.60;;;;;;5111313;28;20077;-39
2020/12/05 09:49:48;;;;;;;44.60;25.90;;;3.50;78.70;;;;;;5105602;28;20033;-40
2020/12/05 09:52:13;;;;;;;44.08;25.42;;;3.50;78.60;;;;;;5099029;28;20024;-39
2020/12/05 09:54:39;;;;;;;43.47;26.58;;;3.50;78.50;;;;;;5098747;28;20117;-41
2020/12/05 09:57:06;;;;;;;46.47;25.88;;;3.50;78.30;;;;;;5097521;28;20028;-39
2020/12/05 09:59:32;;;;;;;48.92;26.98;;;3.50;78.80;;;;;;5098944;28;20506;-47
2020/12/05 10:02:01;;;;;;;43.85;25.20;;;3.50;78.30;;;;;;5098734;28;20048;-42
2020/12/05 10:04:27;;;;;;;41.53;24.50;;;3.50;78.20;;;;;;5099042;28;20043;-43
2020/12/05 10:06:53;;;;;;;43.05;25.15;;;3.60;78.20;;;;;;5098653;28;20027;-42
2020/12/05 10:09:18;;;;;;;42.17;24.75;;;3.60;77.90;;;;;;5099622;28;20039;-43
2020/12/05 10:11:44;;;;;;;38.97;24.52;;;3.60;77.70;;;;;;5098179;28;20031;-43
2020/12/05 10:14:10;;;;;;;42.08;24.90;;;3.60;77.60;;;;;;5098893;28;20113;-42
2020/12/05 10:16:36;;;;;;;40.10;24.15;;;3.60;77.60;;;;;;5097415;28;20036;-42
2020/12/05 10:19:02;;;;;;;42.38;25.05;;;3.60;77.60;;;;;;5098777;28;20048;-42
2020/12/05 10:21:28;;;;;;;38.30;23.13;;;3.60;77.50;;;;;;5097262;28;20340;-43
2020/12/05 10:23:53;;;;;;;52.78;29.88;;;3.70;77.20;;;;;;5099233;28;20032;-42
2020/12/05 10:26:19;;;;;;;46.78;24.35;;;3.70;77.10;;;;;;5098345;28;20055;-42
2020/12/05 10:28:45;;;;;;;47.22;27.48;;;3.70;77.30;;;;;;5098113;28;20409;-43
2020/12/05 10:31:10;;;;;;;43.38;23.00;;;3.70;77.00;;;;;;5097227;28;20036;-42
2020/12/05 10:33:36;;;;;;;49.63;26.08;;;3.70;76.70;;;;;;5090892;28;20119;-42
2020/12/05 10:36:02;;;;;;;51.83;29.45;;;3.70;76.60;;;;;;5078082;28;20020;-43
2020/12/05 10:38:28;;;;;;;45.60;25.77;;;3.70;76.50;;;;;;5079035;28;20049;-40
2020/12/05 10:40:55;;;;;;;43.28;21.83;;;3.70;76.70;;;;;;5076972;28;20033;-40
2020/12/05 10:43:21;;;;;;;41.45;23.30;;;3.70;76.30;;;;;;5077247;28;20029;-39
2020/12/05 10:45:47;;;;;;;43.80;23.75;;;3.70;75.90;;;;;;5077913;28;20380;-39
2020/12/05 10:48:13;;;;;;;44.05;24.73;;;3.70;75.70;;;;;;5077475;28;20129;-42
2020/12/05 10:50:39;;;;;;;41.08;24.42;;;3.70;75.80;;;;;;5077598;28;20115;-43
2020/12/05 10:53:04;;;;;;;45.45;24.15;;;3.60;75.90;;;;;;5093747;28;20070;-42
2020/12/05 10:55:30;;;;;;;45.75;24.67;;;3.70;76.00;;;;;;5088595;28;20032;-43
2020/12/05 10:57:56;;;;;;;50.25;28.17;;;3.70;75.60;;;;;;5081357;28;20350;-42
2020/12/05 11:00:22;;;;;;;48.97;25.02;;;3.60;75.50;;;;;;5079819;28;20040;-40
2020/12/05 11:02:48;;;;;;;48.80;25.80;;;3.60;75.70;;;;;;5080316;28;20059;-39
2020/12/05 11:05:14;;;;;;;44.33;24.85;;;3.60;75.80;;;;;;5078450;28;20449;-43
2020/12/05 11:07:39;;;;;;;43.97;23.92;;;3.60;75.70;;;;;;5087565;28;20024;-39
2020/12/05 11:10:05;;;;;;;51.20;26.65;;;3.70;75.40;;;;;;5076620;28;20031;-41
2020/12/05 11:12:31;;;;;;;52.20;27.23;;;3.60;75.00;;;;;;5078069;28;20024;-39
2020/12/05 11:14:57;;;;;;;50.80;25.92;;;3.60;75.10;;;;;;5089594;28;20047;-41
2020/12/05 11:17:23;;;;;;;55.78;28.52;;;3.50;74.90;;;;;;5077525;28;20032;-39
2020/12/05 11:19:48;;;;;;;51.50;27.92;;;3.50;75.00;;;;;;5077089;28;20036;-42
2020/12/05 11:22:14;;;;;;;56.85;31.20;;;3.50;75.00;;;;;;5076573;28;20036;-42
2020/12/05 11:24:40;;;;;;;55.28;27.50;;;3.50;75.00;;;;;;5077443;28;20032;-39
2020/12/05 11:27:07;;;;;;;66.20;32.55;;;3.40;75.10;;;;;;5075748;28;20028;-40
2020/12/05 11:29:33;;;;;;;64.13;31.13;;;3.40;75.30;;;;;;5075607;28;20074;-40
2020/12/05 11:31:59;;;;;;;79.30;39.10;;;3.50;75.60;;;;;;5076809;28;20322;-40
2020/12/05 11:34:24;;;;;;;68.93;34.17;;;3.50;75.20;;;;;;5077171;28;20325;-41
2020/12/05 11:36:50;;;;;;;77.60;37.95;;;3.50;75.30;;;;;;5076720;28;20032;-40
2020/12/05 11:39:16;;;;;;;81.32;42.80;;;3.40;75.20;;;;;;5066509;28;20053;-40
2020/12/05 11:41:42;;;;;;;85.45;38.97;;;3.50;75.10;;;;;;5075037;28;20089;-41
2020/12/05 11:44:08;;;;;;;74.32;35.40;;;3.50;75.60;;;;;;5075319;28;20036;-39
2020/12/05 11:46:34;;;;;;;86.13;38.53;;;3.50;75.30;;;;;;5076173;28;20024;-40
2020/12/05 11:49:00;;;;;;;75.30;35.13;;;3.50;75.50;;;;;;5076104;28;20032;-39
2020/12/05 11:51:27;;;;;;;70.00;32.85;;;3.50;75.50;;;;;;5074501;28;20105;-40
2020/12/05 11:53:53;;;;;;;89.70;41.45;;;3.50;75.60;;;;;;5084885;28;20032;-39
2020/12/05 11:56:23;;;;;;;72.43;32.60;;;3.60;75.70;;;;;;5090227;28;20425;-41
2020/12/05 11:58:48;;;;;;;74.72;35.10;;;3.60;75.30;;;;;;5077030;28;20044;-39
2020/12/05 12:01:15;;;;;;;85.32;35.78;;;3.60;75.20;;;;;;5089045;28;20474;-43
2020/12/05 12:03:41;;;;;;;71.95;33.05;;;3.60;75.10;;;;;;5097370;28;20047;-40
2020/12/05 12:06:19;;;;;;;71.90;32.75;;;3.60;75.10;;;;;;5096115;28;20413;-40
2020/12/05 12:08:44;;;;;;;76.10;35.35;;;3.60;75.00;;;;;;5096548;28;20032;-39
2020/12/05 12:11:18;;;;;;;65.65;31.00;;;3.60;75.00;;;;;;5096515;28;20030;-40
2020/12/05 12:13:44;;;;;;;67.93;30.67;;;3.60;74.80;;;;;;5089167;28;20039;-40
2020/12/05 12:16:13;;;;;;;61.38;30.42;;;3.60;74.90;;;;;;5093181;28;20498;-41
2020/12/05 12:18:39;;;;;;;56.40;26.67;;;3.60;75.10;;;;;;5081339;28;20090;-39
2020/12/05 12:21:05;;;;;;;67.25;31.45;;;3.60;75.10;;;;;;5074744;28;20036;-39
2020/12/05 12:23:31;;;;;;;62.47;29.23;;;3.60;75.10;;;;;;5076000;28;20028;-39
2020/12/05 12:25:58;;;;;;;75.68;31.25;;;3.60;75.00;;;;;;5074656;28;20016;-40
2020/12/05 12:28:24;;;;;;;73.03;33.45;;;3.60;75.50;;;;;;5078763;28;20036;-41
2020/12/05 12:30:50;;;;;;;72.30;31.30;;;3.60;74.90;;;;;;5088368;28;20020;-41
2020/12/05 12:33:16;;;;;;;71.32;30.35;;;3.60;74.70;;;;;;5094092;28;20024;-40
2020/12/05 12:35:46;;;;;;;68.35;31.15;;;3.60;74.80;;;;;;5085624;28;20057;-39
2020/12/05 12:38:13;;;;;;;73.75;31.92;;;3.60;75.00;;;;;;5066099;28;20055;-43
2020/12/05 12:40:38;;;;;;;80.32;35.67;;;3.60;75.30;;;;;;5055751;28;20419;-43
2020/12/05 12:43:04;;;;;;;78.75;33.78;;;3.60;75.20;;;;;;5082816;28;20055;-43
2020/12/05 12:45:31;;;;;;;64.78;32.80;;;3.60;75.10;;;;;;5075419;28;20324;-42
2020/12/05 12:50:38;;;;;;;67.45;34.35;;;3.60;74.60;;;;;;5075553;28;20020;-38
2020/12/05 12:53:04;;;;;;;58.15;26.77;;;3.60;74.80;;;;;;5083870;28;20031;-41
2020/12/05 12:55:31;;;;;;;61.70;28.67;;;3.60;74.60;;;;;;5094887;28;20414;-39
2020/12/05 12:58:10;;;;;;;50.25;25.08;;;3.60;74.60;;;;;;5086610;28;20032;-42
2020/12/05 13:00:35;;;;;;;74.18;33.13;;;3.50;74.60;;;;;;5074841;28;20436;-42
2020/12/05 13:03:01;;;;;;;64.47;29.38;;;3.60;75.10;;;;;;5075069;28;20067;-42
2020/12/05 13:05:27;;;;;;;71.82;32.53;;;3.60;75.10;;;;;;5076280;28;20021;-38
2020/12/05 13:07:53;;;;;;;52.60;25.45;;;3.50;74.70;;;;;;5075653;28;20035;-39
2020/12/05 13:10:19;;;;;;;64.28;31.08;;;3.50;74.60;;;;;;5065914;28;20025;-43
2020/12/05 13:12:46;;;;;;;60.45;28.02;;;3.50;74.60;;;;;;5063859;28;20027;-43
2020/12/05 13:15:12;;;;;;;55.20;26.27;;;3.50;74.70;;;;;;5072892;28;20082;-42
2020/12/05 13:17:38;;;;;;;54.38;28.60;;;3.60;74.80;;;;;;5075081;28;20445;-42
2020/12/05 13:20:04;;;;;;;51.28;26.90;;;3.60;74.80;;;;;;5073314;28;20024;-43
2020/12/05 13:22:30;;;;;;;54.13;26.60;;;3.60;74.60;;;;;;5075220;28;20082;-42
2020/12/05 13:24:56;;;;;;;56.80;26.77;;;3.50;74.50;;;;;;5077074;28;20024;-42
2020/12/05 13:27:21;;;;;;;57.28;28.33;;;3.50;74.60;;;;;;5079139;28;20043;-42
2020/12/05 13:29:47;;;;;;;64.10;29.45;;;3.50;74.60;;;;;;5079006;28;20024;-43
2020/12/05 13:32:13;;;;;;;65.93;30.95;;;3.50;74.80;;;;;;5078927;28;20035;-41
2020/12/05 13:34:38;;;;;;;63.95;32.38;;;3.50;74.90;;;;;;5077669;28;20035;-43
2020/12/05 13:37:04;;;;;;;57.80;27.88;;;3.50;74.90;;;;;;5071646;28;20025;-41
2020/12/05 13:39:30;;;;;;;62.50;29.92;;;3.50;75.20;;;;;;5058094;28;20056;-41
2020/12/05 13:41:56;;;;;;;61.50;29.58;;;3.50;75.50;;;;;;5057424;28;20025;-42
2020/12/05 13:44:22;;;;;;;57.40;27.90;;;3.50;75.30;;;;;;5058373;28;20035;-41
2020/12/05 13:46:52;;;;;;;59.67;27.30;;;3.60;75.40;;;;;;5058577;28;20032;-42
2020/12/05 13:49:18;;;;;;;56.15;27.58;;;3.60;75.50;;;;;;5065362;28;20032;-42
2020/12/05 13:51:44;;;;;;;52.67;25.40;;;3.60;75.50;;;;;;5077227;28;20117;-43
2020/12/05 13:54:09;;;;;;;45.25;23.75;;;3.70;75.50;;;;;;5078900;28;20083;-42
2020/12/05 13:56:35;;;;;;;46.78;25.67;;;3.60;75.20;;;;;;5077745;28;20024;-44
2020/12/05 13:59:01;;;;;;;52.42;26.17;;;3.70;75.30;;;;;;5078733;28;20086;-42
2020/12/05 14:01:27;;;;;;;53.50;27.10;;;3.70;75.30;;;;;;5078382;28;20020;-42
2020/12/05 14:03:52;;;;;;;49.67;24.10;;;3.70;75.00;;;;;;5078355;28;20058;-42
2020/12/05 14:06:18;;;;;;;55.00;24.85;;;3.70;75.00;;;;;;5079592;28;20025;-44
2020/12/05 14:08:44;;;;;;;55.75;25.25;;;3.70;75.10;;;;;;5077348;28;20033;-42
2020/12/05 14:11:10;;;;;;;60.45;28.60;;;3.70;75.20;;;;;;5078107;28;20028;-42
2020/12/05 14:13:36;;;;;;;50.40;26.27;;;3.70;75.20;;;;;;5077809;28;20142;-42
2020/12/05 14:16:02;;;;;;;51.28;25.90;;;3.60;75.10;;;;;;5078744;28;20094;-42
2020/12/05 14:18:28;;;;;;;57.00;23.52;;;3.60;75.00;;;;;;5078704;28;20040;-42
2020/12/05 14:20:54;;;;;;;53.22;25.23;;;3.60;75.10;;;;;;5077980;28;20422;-42
2020/12/05 14:23:21;;;;;;;46.25;22.80;;;3.60;75.30;;;;;;5077735;28;20055;-42
2020/12/05 14:25:47;;;;;;;51.53;25.95;;;3.60;75.40;;;;;;5077953;28;20059;-42
2020/12/05 14:28:13;;;;;;;48.08;25.50;;;3.60;75.40;;;;;;5078466;28;20120;-42
2020/12/05 14:30:38;;;;;;;53.95;26.00;;;3.70;75.40;;;;;;5078161;28;20032;-42
2020/12/05 14:33:16;;;;;;;49.80;24.75;;;3.70;75.40;;;;;;5078203;28;20033;-42
2020/12/05 14:35:46;;;;;;;46.83;22.38;;;3.70;75.40;;;;;;5077260;28;20028;-39
2020/12/05 14:38:12;;;;;;;44.80;22.35;;;3.70;75.30;;;;;;5059510;28;20088;-39
2020/12/05 14:40:38;;;;;;;36.17;20.08;;;3.70;75.40;;;;;;5056310;28;20112;-43
2020/12/05 14:43:04;;;;;;;41.13;21.13;;;3.70;75.40;;;;;;5064760;28;20430;-40
2020/12/05 14:45:30;;;;;;;45.38;22.88;;;3.70;75.30;;;;;;5081602;28;20131;-41
2020/12/05 14:47:56;;;;;;;35.83;19.17;;;3.70;75.40;;;;;;5086051;28;20119;-40
2020/12/05 14:50:23;;;;;;;46.47;23.20;;;3.70;75.40;;;;;;5073023;28;20078;-43
2020/12/05 14:52:49;;;;;;;44.25;24.20;;;3.80;75.50;;;;;;5066612;28;20416;-40
2020/12/05 14:55:15;;;;;;;48.83;21.35;;;3.70;75.20;;;;;;5068767;28;20029;-39
2020/12/05 14:57:42;;;;;;;40.95;20.63;;;3.80;75.20;;;;;;5075860;28;20039;-43
2020/12/05 15:00:08;;;;;;;42.00;20.35;;;3.80;75.10;;;;;;5074529;28;20020;-40
2020/12/05 15:02:34;;;;;;;40.65;20.52;;;3.80;75.30;;;;;;5075683;28;20055;-43
2020/12/05 15:05:02;;;;;;;37.55;19.98;;;3.80;75.30;;;;;;5074307;28;20055;-44
2020/12/05 15:07:28;;;;;;;36.45;19.10;;;3.80;75.30;;;;;;5075580;28;20342;-43
2020/12/05 15:09:54;;;;;;;41.20;21.33;;;3.70;75.20;;;;;;5077447;28;20021;-43
2020/12/05 15:12:20;;;;;;;39.53;20.42;;;3.80;75.40;;;;;;5103021;28;20020;-44
2020/12/05 15:14:46;;;;;;;44.00;22.30;;;3.80;75.40;;;;;;5077768;28;20429;-43
2020/12/05 15:17:12;;;;;;;37.97;23.00;;;3.80;75.10;;;;;;5083629;28;20417;-43
2020/12/05 15:19:38;;;;;;;60.13;34.15;;;3.80;75.00;;;;;;5086564;28;20037;-40
2020/12/05 15:22:05;;;;;;;48.17;25.92;;;3.80;74.90;;;;;;5061870;28;20381;-43
2020/12/05 15:24:32;;;;;;;57.67;31.60;;;3.80;74.80;;;;;;5062492;28;20032;-40
2020/12/05 15:26:58;;;;;;;45.78;24.80;;;3.80;74.90;;;;;;5056843;28;20032;-40
2020/12/05 15:29:24;;;;;;;43.20;23.00;;;3.80;75.20;;;;;;5061822;28;20036;-43
2020/12/05 15:31:50;;;;;;;48.67;24.85;;;3.80;75.20;;;;;;5077722;28;20028;-43
2020/12/05 15:34:17;;;;;;;61.05;33.67;;;3.80;75.00;;;;;;5079396;28;20418;-40
2020/12/05 15:36:46;;;;;;;47.95;24.75;;;3.80;75.10;;;;;;5056414;28;20021;-39
2020/12/05 15:39:12;;;;;;;43.13;23.50;;;3.80;75.10;;;;;;5055915;28;20041;-39
2020/12/05 15:41:37;;;;;;;44.78;24.38;;;3.80;75.10;;;;;;5056220;28;20036;-41
2020/12/05 15:44:03;;;;;;;39.22;23.23;;;3.80;75.20;;;;;;5056288;28;20025;-42
2020/12/05 15:46:29;;;;;;;71.15;39.30;;;3.80;75.30;;;;;;5056344;28;20029;-38
2020/12/05 15:48:55;;;;;;;46.67;24.73;;;3.80;75.00;;;;;;5057093;28;20036;-40
2020/12/05 15:51:21;;;;;;;47.03;23.23;;;3.80;75.10;;;;;;5057411;28;20025;-38
2020/12/05 15:53:46;;;;;;;66.13;36.60;;;3.80;75.20;;;;;;5055487;28;20029;-39
2020/12/05 15:56:16;;;;;;;51.47;26.75;;;3.80;75.20;;;;;;5056765;28;20029;-39
2020/12/05 15:58:42;;;;;;;49.20;25.48;;;3.90;75.10;;;;;;5056295;28;20084;-42
2020/12/05 16:01:07;;;;;;;42.17;23.48;;;3.90;75.30;;;;;;5055683;28;20052;-39
2020/12/05 16:03:33;;;;;;;55.15;28.40;;;3.90;75.40;;;;;;5055982;28;20396;-40
2020/12/05 16:05:59;;;;;;;41.63;23.52;;;3.90;75.50;;;;;;5055452;28;20025;-39
2020/12/05 16:08:26;;;;;;;41.70;24.48;;;4.00;75.50;;;;;;5055718;28;20021;-40
2020/12/05 16:10:54;;;;;;;48.78;26.02;;;4.00;75.30;;;;;;5056527;28;20107;-39
2020/12/05 16:13:20;;;;;;;49.03;26.40;;;4.00;75.10;;;;;;5056543;28;20025;-39
2020/12/05 16:15:47;;;;;;;51.50;25.67;;;4.00;75.10;;;;;;5055878;28;20032;-42
2020/12/05 16:18:13;;;;;;;47.13;25.38;;;4.00;75.20;;;;;;5054085;28;20056;-43
2020/12/05 16:20:39;;;;;;;46.85;24.92;;;4.00;75.00;;;;;;5054209;28;20029;-42
2020/12/05 16:23:05;;;;;;;30.88;18.30;;;4.00;75.00;;;;;;5054826;28;20020;-43
2020/12/05 16:25:31;;;;;;;30.42;16.40;;;4.00;75.20;;;;;;5053751;28;20085;-42
2020/12/05 16:27:57;;;;;;;34.63;18.48;;;4.00;75.20;;;;;;5055464;28;20059;-42
2020/12/05 16:30:23;;;;;;;26.67;14.15;;;4.00;75.30;;;;;;5053447;28;20560;-43
2020/12/05 16:32:49;;;;;;;25.08;14.38;;;4.10;75.40;;;;;;5054519;28;20052;-43
2020/12/05 16:35:15;;;;;;;31.60;15.25;;;4.10;75.20;;;;;;5054981;28;20423;-39
2020/12/05 16:37:41;;;;;;;26.95;13.88;;;4.10;75.10;;;;;;5055129;28;20047;-43
2020/12/05 16:40:08;;;;;;;33.63;17.38;;;4.10;75.10;;;;;;5038093;28;20106;-42
2020/12/05 16:42:35;;;;;;;25.95;14.30;;;4.10;75.00;;;;;;5056389;28;20051;-43
2020/12/05 16:45:01;;;;;;;22.42;11.98;;;4.10;75.00;;;;;;5055759;28;20076;-40
2020/12/05 16:47:27;;;;;;;19.83;12.32;;;4.10;75.00;;;;;;5056041;28;20143;-44
2020/12/05 16:49:54;;;;;;;18.77;11.82;;;4.10;74.50;;;;;;5054877;28;20338;-43
2020/12/05 16:52:21;;;;;;;25.15;13.57;;;4.10;74.10;;;;;;5055772;28;20029;-39
2020/12/05 16:54:48;;;;;;;22.02;11.93;;;4.10;74.00;;;;;;5055595;28;20067;-42
2020/12/05 16:57:14;;;;;;;23.52;12.15;;;4.10;73.50;;;;;;5055418;28;20033;-42
2020/12/05 16:59:40;;;;;;;19.10;10.55;;;4.10;73.20;;;;;;5057423;28;20037;-42
2020/12/05 17:02:06;;;;;;;18.88;10.85;;;4.00;73.00;;;;;;5058982;28;20373;-39
2020/12/05 17:04:33;;;;;;;23.88;11.93;;;4.00;72.80;;;;;;5058166;28;20021;-43
2020/12/05 17:06:58;;;;;;;20.95;11.48;;;4.00;72.90;;;;;;5059150;28;20021;-43
2020/12/05 17:09:26;;;;;;;21.40;12.23;;;3.90;72.70;;;;;;5058925;28;20106;-39
2020/12/05 17:11:51;;;;;;;22.63;11.13;;;3.90;72.40;;;;;;5059090;28;20414;-42
2020/12/05 17:14:19;;;;;;;20.70;11.38;;;3.90;72.30;;;;;;5059533;28;20067;-42
2020/12/05 17:16:46;;;;;;;22.55;11.57;;;3.80;71.90;;;;;;5058744;28;20025;-43
2020/12/05 17:19:12;;;;;;;21.52;12.45;;;3.80;72.00;;;;;;5058602;28;20384;-42
2020/12/05 17:21:38;;;;;;;21.95;12.52;;;3.80;71.90;;;;;;5058742;28;20032;-42
2020/12/05 17:24:04;;;;;;;27.05;14.10;;;3.80;71.70;;;;;;5058785;28;20028;-42
2020/12/05 17:26:30;;;;;;;29.38;13.10;;;3.70;71.50;;;;;;5058275;28;20036;-42
2020/12/05 17:28:56;;;;;;;25.60;13.57;;;3.70;71.50;;;;;;5059339;28;20052;-42
2020/12/05 17:31:22;;;;;;;21.52;12.60;;;3.60;71.40;;;;;;5058691;28;20167;-41
2020/12/05 17:33:48;;;;;;;24.98;12.43;;;3.60;71.50;;;;;;5058429;28;20049;-41
2020/12/05 17:36:14;;;;;;;24.65;11.60;;;3.60;71.40;;;;;;5059937;28;20041;-41
2020/12/05 17:38:39;;;;;;;20.80;10.73;;;3.60;71.20;;;;;;5058965;28;20107;-41
2020/12/05 17:41:05;;;;;;;23.98;12.57;;;3.60;71.20;;;;;;5059490;28;20037;-42
2020/12/05 17:43:32;;;;;;;19.48;11.32;;;3.50;71.20;;;;;;5058057;28;20029;-42
2020/12/05 17:45:58;;;;;;;22.10;11.15;;;3.50;71.10;;;;;;5059588;28;20029;-42
2020/12/05 17:48:25;;;;;;;22.02;12.38;;;3.50;71.10;;;;;;5058971;28;20112;-41
2020/12/05 17:50:50;;;;;;;22.75;11.65;;;3.50;70.90;;;;;;5058682;28;20037;-41
2020/12/05 17:53:16;;;;;;;22.50;12.00;;;3.50;70.90;;;;;;5059553;28;20048;-41
2020/12/05 17:55:43;;;;;;;21.25;11.63;;;3.50;70.90;;;;;;5059214;28;20312;-38
2020/12/05 17:58:10;;;;;;;22.60;10.90;;;3.40;70.80;;;;;;5058095;28;20050;-39
2020/12/05 18:00:36;;;;;;;19.80;11.30;;;3.40;70.60;;;;;;5058353;28;20086;-41
2020/12/05 18:03:02;;;;;;;19.17;10.05;;;3.40;70.80;;;;;;5059109;28;20028;-42
2020/12/05 18:05:28;;;;;;;22.10;11.80;;;3.40;71.00;;;;;;5057937;28;20033;-42
2020/12/05 18:07:54;;;;;;;20.15;11.65;;;3.40;71.10;;;;;;5058785;28;20025;-42
2020/12/05 18:10:21;;;;;;;22.80;12.07;;;3.40;70.90;;;;;;5058476;28;20059;-39
2020/12/05 18:12:46;;;;;;;22.75;12.73;;;3.30;70.80;;;;;;5057779;28;20107;-41
2020/12/05 18:15:13;;;;;;;24.88;12.43;;;3.30;70.80;;;;;;5058747;28;20059;-42
2020/12/05 18:17:41;;;;;;;29.20;12.18;;;3.30;70.80;;;;;;5057325;28;20449;-38
2020/12/05 18:20:08;;;;;;;31.40;14.45;;;3.30;70.90;;;;;;5058797;28;20041;-42
2020/12/05 18:22:33;;;;;;;23.02;11.23;;;3.30;70.70;;;;;;5057429;28;20024;-43
2020/12/05 18:24:59;;;;;;;20.27;11.18;;;3.30;70.50;;;;;;5058582;28;20120;-41
2020/12/05 18:27:27;;;;;;;22.10;11.98;;;3.30;70.50;;;;;;5057189;28;20036;-41
2020/12/05 18:29:53;;;;;;;25.58;12.15;;;3.20;70.30;;;;;;5058237;28;20389;-41
2020/12/05 18:32:19;;;;;;;27.77;13.60;;;3.20;70.20;;;;;;5058234;28;20021;-41
2020/12/05 18:34:45;;;;;;;21.25;11.18;;;3.20;70.20;;;;;;5056890;28;20078;-41
2020/12/05 18:37:11;;;;;;;22.67;12.23;;;3.10;70.10;;;;;;5058119;28;20071;-41
2020/12/05 18:39:36;;;;;;;19.50;10.20;;;3.10;70.10;;;;;;5039896;28;20408;-41
2020/12/05 18:42:02;;;;;;;26.40;12.10;;;3.10;70.00;;;;;;5056711;28;20115;-41
2020/12/05 18:44:28;;;;;;;22.73;11.60;;;3.00;69.90;;;;;;5057705;28;20170;-41
2020/12/05 18:46:56;;;;;;;21.25;11.40;;;3.00;69.70;;;;;;5058369;28;20284;-41
2020/12/05 18:49:22;;;;;;;19.85;10.93;;;2.90;69.60;;;;;;5057923;28;20059;-41
2020/12/05 18:51:48;;;;;;;21.90;10.90;;;2.90;69.60;;;;;;5057841;28;20321;-41
2020/12/05 18:54:13;;;;;;;23.92;11.63;;;2.90;69.60;;;;;;5057608;28;20028;-41
2020/12/05 18:56:42;;;;;;;21.08;10.57;;;2.80;69.40;;;;;;5057993;28;20025;-42
2020/12/05 18:59:08;;;;;;;21.75;10.52;;;2.80;69.20;;;;;;5057404;28;20032;-42
2020/12/05 19:01:33;;;;;;;17.95;10.25;;;2.70;69.20;;;;;;5057411;28;20021;-41
2020/12/05 19:03:59;;;;;;;20.98;10.70;;;2.60;69.20;;;;;;5057827;28;20119;-41
2020/12/05 19:06:25;;;;;;;19.05;9.98;;;2.60;69.10;;;;;;5068307;28;20041;-42
2020/12/05 19:08:54;;;;;;;20.58;10.00;;;2.60;69.20;;;;;;5066240;28;20461;-41
2020/12/05 19:11:24;;;;;;;21.67;11.25;;;2.50;69.00;;;;;;5058187;28;20029;-38
2020/12/05 19:13:50;;;;;;;18.80;9.77;;;2.50;68.90;;;;;;5058173;28;20024;-39
2020/12/05 19:16:16;;;;;;;15.93;8.65;;;2.50;68.70;;;;;;5057712;28;20377;-38
2020/12/05 19:18:43;;;;;;;18.25;8.68;;;2.40;68.50;;;;;;5056885;28;20039;-40
2020/12/05 19:21:09;;;;;;;15.40;8.93;;;2.40;68.50;;;;;;5057937;28;20029;-42
2020/12/05 19:23:34;;;;;;;17.48;8.27;;;2.40;68.30;;;;;;5057144;28;20548;-39
2020/12/05 19:26:00;;;;;;;17.48;9.00;;;2.40;68.20;;;;;;5057239;28;20032;-38
2020/12/05 19:28:26;;;;;;;15.25;8.63;;;2.40;68.30;;;;;;5057650;28;20318;-39
2020/12/05 19:30:51;;;;;;;18.23;8.65;;;2.30;68.00;;;;;;5057870;28;20029;-38
2020/12/05 19:33:17;;;;;;;16.67;8.95;;;2.30;67.90;;;;;;5057328;28;20025;-40
2020/12/05 19:35:43;;;;;;;16.15;8.85;;;2.30;67.90;;;;;;5067511;28;20033;-40
2020/12/05 19:38:08;;;;;;;16.83;8.15;;;2.30;67.90;;;;;;5075584;28;20353;-42
2020/12/05 19:40:34;;;;;;;15.63;8.02;;;2.30;67.80;;;;;;5074306;28;20044;-41
2020/12/05 19:43:00;;;;;;;18.83;9.30;;;2.30;67.40;;;;;;5063879;28;20335;-42
2020/12/05 19:45:26;;;;;;;16.10;8.50;;;2.30;67.10;;;;;;5067238;28;20033;-42
2020/12/05 19:47:52;;;;;;;15.93;8.75;;;2.20;67.20;;;;;;5055310;28;20028;-42
2020/12/05 19:50:19;;;;;;;17.67;9.60;;;2.20;67.20;;;;;;5062548;28;20031;-41
2020/12/05 19:52:44;;;;;;;16.35;8.73;;;2.20;67.30;;;;;;5059654;28;20393;-42
2020/12/05 19:55:10;;;;;;;14.80;8.00;;;2.20;67.30;;;;;;5056708;28;20025;-41
2020/12/05 19:57:36;;;;;;;18.33;8.02;;;2.20;67.10;;;;;;5070418;28;20073;-42
2020/12/05 20:00:06;;;;;;;24.50;9.65;;;2.20;66.90;;;;;;5075272;28;20315;-41
2020/12/05 20:02:33;;;;;;;18.13;8.63;;;2.20;66.90;;;;;;5075989;28;20330;-42
2020/12/05 20:04:58;;;;;;;21.02;9.60;;;2.20;66.90;;;;;;5075482;28;20503;-41
2020/12/05 20:07:26;;;;;;;22.02;9.15;;;2.20;66.90;;;;;;5075252;28;20154;-42
2020/12/05 20:09:56;;;;;;;16.85;8.23;;;2.10;66.70;;;;;;5076349;28;20033;-41
2020/12/05 20:12:22;;;;;;;27.60;10.70;;;2.10;66.30;;;;;;5076712;28;20032;-41
2020/12/05 20:14:47;;;;;;;19.45;9.90;;;2.10;66.20;;;;;;5072841;28;20334;-42
2020/12/05 20:17:13;;;;;;;13.88;7.03;;;2.10;66.30;;;;;;5076004;28;20016;-41
2020/12/05 20:19:39;;;;;;;20.60;9.48;;;2.00;65.90;;;;;;5072789;28;20311;-41
2020/12/05 20:22:05;;;;;;;16.45;8.80;;;2.00;66.00;;;;;;5075221;28;20363;-41
2020/12/05 20:24:31;;;;;;;22.05;9.75;;;2.00;66.10;;;;;;5075743;28;20036;-41
2020/12/05 20:26:58;;;;;;;16.17;8.25;;;2.00;65.90;;;;;;5076698;28;20337;-41
2020/12/05 20:29:23;;;;;;;18.25;9.02;;;1.90;65.80;;;;;;5076419;28;20036;-41
2020/12/05 20:31:49;;;;;;;18.80;8.98;;;1.90;65.60;;;;;;5076169;28;20025;-41
2020/12/05 20:34:15;;;;;;;26.17;11.18;;;1.90;65.80;;;;;;5076019;28;20462;-41
2020/12/05 20:36:40;;;;;;;14.30;8.45;;;1.90;65.60;;;;;;5074091;28;20035;-40
2020/12/05 20:39:06;;;;;;;17.10;8.93;;;1.80;65.00;;;;;;5074469;28;20548;-41
2020/12/05 20:41:32;;;;;;;17.30;8.88;;;1.80;65.20;;;;;;5074922;28;20059;-40
2020/12/05 20:43:57;;;;;;;19.65;8.63;;;1.80;65.20;;;;;;5074220;28;20026;-40
2020/12/05 20:46:23;;;;;;;15.90;7.97;;;1.70;65.10;;;;;;5073235;28;20048;-40
2020/12/05 20:48:49;;;;;;;18.80;8.07;;;1.70;65.30;;;;;;5074445;28;20523;-40
2020/12/05 20:51:14;;;;;;;16.70;8.45;;;1.70;65.30;;;;;;5074804;28;20029;-38
2020/12/05 20:53:40;;;;;;;17.10;8.95;;;1.70;65.20;;;;;;5074628;28;20290;-41
2020/12/05 20:56:07;;;;;;;18.58;7.70;;;1.70;65.30;;;;;;5073991;28;20033;-38
2020/12/05 20:58:33;;;;;;;19.48;8.80;;;1.70;65.30;;;;;;5073211;28;20037;-39
2020/12/05 21:00:59;;;;;;;18.42;8.93;;;1.70;65.30;;;;;;5076306;28;20128;-38
2020/12/05 21:03:24;;;;;;;16.42;9.38;;;1.70;65.20;;;;;;5075794;28;20380;-41
2020/12/05 21:05:50;;;;;;;21.20;9.07;;;1.60;65.30;;;;;;5074733;28;20461;-39
2020/12/05 21:08:16;;;;;;;15.15;7.65;;;1.60;65.20;;;;;;5074577;28;20449;-40
2020/12/05 21:10:41;;;;;;;15.13;8.15;;;1.60;65.10;;;;;;5073997;28;20028;-38
2020/12/05 21:13:07;;;;;;;16.63;8.48;;;1.60;65.20;;;;;;5074248;28;20024;-40
2020/12/05 21:15:34;;;;;;;14.70;7.70;;;1.60;65.20;;;;;;5075624;28;20040;-38